Terminal Aerodrome Forecast
Issued by NWS

Home | Current Version | Previous Version | Text Only | Print | Product List | Glossary On
Versions: 1 2 3 4 5 6 7 8 9 10 11 12 13 14 15 16 17 18 19
000
FTUS42 KJAX 301826 AAB
TAFVQQ
TAF AMD
KVQQ 301826Z 3018/3118 08005KT P6SM VCTS BKN025CB BKN050
      TEMPO 3018/3020 2SM +TSRA BR BKN020CB
     FM302000 08008KT P6SM SCT030 BKN050
     FM310200 09003KT P6SM SCT020
     FM311400 09007KT P6SM BKN030=

USA.gov is the U.S. government's official web portal to all federal, state and local government web resources and services.